createdAt,value
2024-02-14T00:00:15.642Z,6.03
2024-02-14T00:02:45.935Z,5.88
2024-02-14T00:05:13.117Z,5.90
2024-02-14T00:07:43.476Z,6.45
2024-02-14T00:10:10.723Z,6.22
2024-02-14T00:12:38.275Z,5.50
2024-02-14T00:15:08.289Z,6.38
2024-02-14T00:17:36.104Z,5.72
2024-02-14T00:20:05.046Z,6.05
2024-02-14T00:22:32.410Z,5.57
2024-02-14T00:24:59.206Z,5.40
2024-02-14T00:27:27.765Z,5.85
2024-02-14T00:29:55.751Z,5.93
2024-02-14T00:32:23.300Z,5.55
2024-02-14T00:34:51.322Z,6.13
2024-02-14T00:37:20.552Z,5.90
2024-02-14T00:39:49.800Z,6.22
2024-02-14T00:42:16.694Z,6.03
2024-02-14T00:44:43.570Z,5.97
2024-02-14T00:47:10.397Z,5.38
2024-02-14T00:49:38.613Z,5.85
2024-02-14T00:52:05.459Z,6.07
2024-02-14T00:54:32.359Z,5.07
2024-02-14T00:56:59.132Z,5.35
2024-02-14T00:59:26.186Z,6.15
2024-02-14T01:01:53.061Z,5.82
2024-02-14T01:04:19.840Z,6.40
2024-02-14T01:06:46.748Z,7.22
2024-02-14T01:09:13.570Z,7.03
2024-02-14T01:11:40.484Z,6.32
2024-02-14T01:14:07.424Z,5.68
2024-02-14T01:16:34.287Z,5.53
2024-02-14T01:19:01.443Z,6.15
2024-02-14T01:21:28.524Z,6.93
2024-02-14T01:23:55.312Z,6.00
2024-02-14T01:26:22.258Z,6.03
2024-02-14T01:28:49.605Z,6.57
2024-02-14T01:31:16.597Z,5.10
2024-02-14T01:33:44.812Z,5.82
2024-02-14T01:36:11.646Z,5.65
2024-02-14T01:38:38.479Z,6.72
2024-02-14T01:41:06.247Z,5.75
2024-02-14T01:43:32.995Z,5.88
2024-02-14T01:46:07.129Z,6.63
2024-02-14T01:48:36.381Z,5.20
2024-02-14T01:51:04.781Z,5.55
2024-02-14T01:53:32.525Z,5.70
2024-02-14T01:56:00.935Z,5.03
2024-02-14T01:58:29.366Z,5.53
2024-02-14T02:00:58.205Z,5.88
2024-02-14T02:03:26.504Z,5.32
2024-02-14T02:05:55.194Z,5.97
2024-02-14T02:08:22.842Z,5.65
2024-02-14T02:10:49.677Z,6.18
2024-02-14T02:13:16.987Z,6.15
2024-02-14T02:15:47.876Z,5.35
2024-02-14T02:18:16.469Z,5.97
2024-02-14T02:20:46.655Z,5.70
2024-02-14T02:23:16.783Z,5.80
2024-02-14T02:25:44.716Z,5.38
2024-02-14T02:28:11.499Z,6.05
2024-02-14T02:30:38.758Z,5.50
2024-02-14T02:33:07.196Z,6.18
2024-02-14T02:35:35.089Z,6.32
2024-02-14T02:38:02.074Z,6.65
2024-02-14T02:40:28.841Z,6.13
2024-02-14T02:42:56.019Z,6.15
2024-02-14T02:45:23.111Z,5.95
2024-02-14T02:47:52.732Z,6.10
2024-02-14T02:50:21.148Z,6.72
2024-02-14T02:52:48.569Z,6.32
2024-02-14T02:55:19.470Z,7.22
2024-02-14T02:57:46.860Z,7.25
2024-02-14T03:00:14.864Z,6.07
2024-02-14T03:02:48.009Z,6.53
2024-02-14T03:05:19.928Z,6.75
2024-02-14T03:07:49.671Z,6.18
2024-02-14T03:10:19.542Z,6.07
2024-02-14T03:12:50.799Z,6.18
2024-02-14T03:15:18.648Z,6.10
2024-02-14T03:17:46.069Z,5.80
2024-02-14T03:20:16.969Z,6.35
2024-02-14T03:22:48.685Z,5.88
2024-02-14T03:25:18.526Z,6.43
2024-02-14T03:27:52.410Z,6.20
2024-02-14T03:30:23.435Z,6.15
2024-02-14T03:32:51.471Z,7.38
2024-02-14T03:35:19.038Z,6.93
2024-02-14T03:37:49.700Z,6.88
2024-02-14T03:40:16.748Z,6.93
2024-02-14T03:42:43.513Z,6.13
2024-02-14T03:45:10.871Z,7.30
2024-02-14T03:47:40.882Z,6.78
2024-02-14T03:50:11.853Z,7.25
2024-02-14T03:52:38.692Z,6.85
2024-02-14T03:55:06.642Z,6.55
2024-02-14T03:57:36.402Z,6.78
2024-02-14T04:00:04.349Z,6.53
2024-02-14T04:02:32.971Z,6.35
2024-02-14T04:05:00.092Z,6.32
2024-02-14T04:07:27.656Z,6.13
2024-02-14T04:09:54.465Z,5.90
2024-02-14T04:12:21.203Z,6.63
2024-02-14T04:14:48.071Z,7.40
2024-02-14T04:17:15.422Z,6.32
2024-02-14T04:19:42.341Z,5.72
2024-02-14T04:22:09.426Z,6.07
2024-02-14T04:24:36.587Z,6.18
2024-02-14T04:27:05.379Z,6.03
2024-02-14T04:29:34.799Z,6.07
2024-02-14T04:32:02.354Z,6.50
2024-02-14T04:34:29.808Z,6.50
2024-02-14T04:36:57.700Z,6.32
2024-02-14T04:39:24.468Z,5.40
2024-02-14T04:41:57.538Z,6.53
2024-02-14T04:44:32.754Z,6.28
2024-02-14T04:47:00.365Z,6.43
2024-02-14T04:49:30.019Z,5.97
2024-02-14T04:51:56.987Z,6.50
2024-02-14T04:54:23.825Z,6.38
2024-02-14T04:56:53.797Z,6.57
2024-02-14T04:59:23.365Z,5.68
2024-02-14T05:01:51.241Z,6.90
2024-02-14T05:04:18.142Z,6.35
2024-02-14T05:06:45.124Z,5.97
2024-02-14T05:09:12.202Z,6.25
2024-02-14T05:11:39.215Z,7.90
2024-02-14T05:14:06.148Z,6.97
2024-02-14T05:16:32.902Z,6.18
2024-02-14T05:19:00.129Z,6.55
2024-02-14T05:21:28.266Z,5.75
2024-02-14T05:23:55.138Z,5.47
2024-02-14T05:26:22.001Z,6.63
2024-02-14T05:28:48.735Z,6.63
2024-02-14T05:31:16.308Z,5.80
2024-02-14T05:33:44.351Z,6.30
2024-02-14T05:36:11.455Z,5.80
2024-02-14T05:38:38.341Z,6.45
2024-02-14T05:41:05.248Z,6.13
2024-02-14T05:43:32.010Z,6.10
2024-02-14T05:45:58.735Z,5.95
2024-02-14T05:48:26.746Z,6.63
2024-02-14T05:50:53.726Z,5.95
2024-02-14T05:53:21.418Z,6.03
2024-02-14T05:55:48.198Z,6.32
2024-02-14T05:58:16.247Z,6.50
2024-02-14T06:00:43.404Z,5.65
2024-02-14T06:03:10.325Z,6.55
2024-02-14T06:05:37.393Z,5.97
2024-02-14T06:08:04.644Z,6.82
2024-02-14T06:10:31.637Z,6.78
2024-02-14T06:12:58.457Z,5.65
2024-02-14T06:15:25.296Z,6.95
2024-02-14T06:17:52.408Z,6.65
2024-02-14T06:20:19.810Z,7.13
2024-02-14T06:22:53.538Z,6.38
2024-02-14T06:25:24.611Z,6.70
2024-02-14T06:27:51.442Z,6.90
2024-02-14T06:30:18.730Z,6.13
2024-02-14T06:32:47.351Z,6.70
2024-02-14T06:35:16.504Z,6.75
2024-02-14T06:37:48.921Z,6.03
2024-02-14T06:40:23.461Z,6.15
2024-02-14T06:42:52.160Z,7.32
2024-02-14T06:45:19.451Z,7.57
2024-02-14T06:47:46.350Z,7.78
2024-02-14T06:50:13.202Z,7.68
2024-02-14T06:52:40.038Z,7.05
2024-02-14T06:55:07.359Z,6.60
2024-02-14T06:57:34.099Z,7.85
2024-02-14T07:00:01.046Z,7.68
2024-02-14T07:02:29.532Z,7.20
2024-02-14T07:04:56.437Z,7.10
2024-02-14T07:07:23.379Z,10.93
2024-02-14T07:09:50.240Z,13.52
2024-02-14T07:12:17.076Z,10.18
2024-02-14T07:14:43.941Z,9.35
2024-02-14T07:17:10.776Z,12.90
2024-02-14T07:19:39.862Z,20.10
2024-02-14T07:22:06.652Z,17.98
2024-02-14T07:24:33.403Z,11.25
2024-02-14T07:27:00.205Z,8.93
2024-02-14T07:29:27.133Z,7.28
2024-02-14T07:31:53.968Z,9.20
2024-02-14T07:34:20.948Z,13.57
2024-02-14T07:36:47.913Z,15.57
2024-02-14T07:39:14.854Z,12.88
2024-02-14T07:41:41.787Z,12.85
2024-02-14T07:44:08.891Z,12.43
2024-02-14T07:46:35.632Z,11.15
2024-02-14T07:49:02.669Z,10.10
2024-02-14T07:51:30.490Z,9.57
2024-02-14T07:53:57.392Z,8.90
2024-02-14T07:56:24.143Z,10.77
2024-02-14T07:58:51.188Z,9.68
2024-02-14T08:01:18.184Z,10.20
2024-02-14T08:03:47.127Z,8.45
2024-02-14T08:06:15.025Z,8.23
2024-02-14T08:08:42.049Z,8.15
2024-02-14T08:11:08.884Z,8.63
2024-02-14T08:13:35.968Z,7.75
2024-02-14T08:16:02.868Z,7.82
2024-02-14T08:18:29.834Z,7.38
2024-02-14T08:20:56.825Z,8.20
2024-02-14T08:23:23.726Z,7.63
2024-02-14T08:25:50.551Z,6.57
2024-02-14T08:28:19.360Z,7.45
2024-02-14T08:30:46.285Z,7.22
2024-02-14T08:33:13.198Z,7.57
2024-02-14T08:35:43.529Z,6.53
2024-02-14T08:38:10.987Z,7.30
2024-02-14T08:40:38.001Z,7.22
2024-02-14T08:43:05.979Z,6.55
2024-02-14T08:45:33.132Z,6.95
2024-02-14T08:48:00.372Z,7.35
2024-02-14T08:50:27.239Z,10.10
2024-02-14T08:52:54.075Z,8.85
2024-02-14T08:55:20.868Z,9.13
2024-02-14T08:57:49.229Z,6.95
2024-02-14T09:00:20.925Z,5.60
2024-02-14T09:02:48.332Z,6.22
2024-02-14T09:05:17.865Z,5.50
2024-02-14T09:07:45.564Z,6.60
2024-02-14T09:10:13.826Z,5.55
2024-02-14T09:12:42.664Z,6.40
2024-02-14T09:15:10.167Z,5.93
2024-02-14T09:17:37.324Z,5.80
2024-02-14T09:20:04.706Z,6.80
2024-02-14T09:22:31.656Z,6.45
2024-02-14T09:24:58.923Z,5.38
2024-02-14T09:27:25.766Z,5.07
2024-02-14T09:29:52.615Z,4.93
2024-02-14T09:32:19.397Z,5.72
2024-02-14T09:34:47.418Z,4.65
2024-02-14T09:37:14.631Z,5.05
2024-02-14T09:39:44.362Z,4.55
2024-02-14T09:42:15.495Z,4.82
2024-02-14T09:44:42.520Z,4.70
2024-02-14T09:47:10.555Z,4.88
2024-02-14T09:49:38.246Z,4.80
2024-02-14T09:52:06.373Z,5.35
2024-02-14T09:54:36.715Z,5.65
2024-02-14T09:57:03.814Z,5.50
2024-02-14T09:59:30.879Z,5.63
2024-02-14T10:01:58.129Z,6.05
2024-02-14T10:04:27.765Z,5.53
2024-02-14T10:06:54.774Z,6.75
2024-02-14T10:09:23.267Z,5.85
2024-02-14T10:11:50.855Z,6.05
2024-02-14T10:14:17.783Z,5.35
2024-02-14T10:16:46.680Z,5.78
2024-02-14T10:19:20.115Z,5.03
2024-02-14T10:22:06.272Z,4.68
2024-02-14T10:27:03.066Z,3.60
2024-02-14T10:29:30.713Z,3.75
2024-02-14T10:31:58.390Z,4.18
2024-02-14T10:34:28.174Z,3.85
2024-02-14T10:36:58.846Z,3.40
2024-02-14T10:39:27.090Z,2.72
2024-02-14T10:41:54.821Z,2.58
2024-02-14T10:44:21.686Z,2.28
2024-02-14T10:46:52.712Z,2.50
2024-02-14T10:49:22.352Z,2.17
2024-02-14T10:51:51.587Z,2.55
2024-02-14T10:54:20.222Z,2.03
2024-02-14T10:56:53.831Z,1.90
2024-02-14T10:59:24.261Z,2.20
2024-02-14T11:01:52.609Z,1.80
2024-02-14T11:04:20.246Z,1.90
2024-02-14T11:06:48.576Z,1.80
2024-02-14T11:09:16.933Z,1.95
2024-02-14T11:11:48.042Z,2.00
2024-02-14T11:14:20.246Z,1.90
2024-02-14T11:16:47.505Z,1.83
2024-02-14T11:19:15.806Z,2.22
2024-02-14T11:21:44.717Z,1.40
2024-02-14T11:24:13.341Z,4.60
2024-02-14T11:26:52.841Z,2.92
2024-02-14T11:29:23.141Z,3.65
2024-02-14T11:32:03.172Z,2.22
2024-02-14T11:34:36.048Z,2.53
2024-02-14T11:37:06.324Z,1.90
2024-02-14T11:39:34.822Z,1.98
2024-02-14T11:42:02.122Z,1.80
2024-02-14T11:44:29.065Z,1.30
2024-02-14T11:46:56.155Z,1.20
2024-02-14T11:49:23.162Z,1.30
2024-02-14T11:51:50.229Z,1.75
2024-02-14T11:54:18.291Z,1.45
2024-02-14T11:56:45.098Z,1.20
2024-02-14T11:59:12.019Z,1.50
2024-02-14T12:01:48.670Z,1.20
2024-02-14T12:04:15.732Z,1.27
2024-02-14T12:06:43.248Z,1.35
2024-02-14T12:09:11.005Z,1.38
2024-02-14T12:11:38.899Z,1.20
2024-02-14T12:14:09.901Z,0.88
2024-02-14T12:16:37.722Z,1.08
2024-02-14T12:19:12.903Z,1.00
2024-02-14T12:21:40.734Z,0.95
2024-02-14T12:24:11.936Z,1.10
2024-02-14T12:26:39.909Z,0.90
2024-02-14T12:29:08.115Z,0.80
2024-02-14T12:31:35.519Z,1.30
2024-02-14T12:34:05.961Z,1.05
2024-02-14T12:36:34.817Z,0.80
2024-02-14T12:39:03.992Z,1.00
2024-02-14T12:41:32.261Z,0.90
2024-02-14T12:44:01.995Z,0.70
2024-02-14T12:46:29.118Z,0.82
2024-02-14T12:48:56.180Z,1.05
2024-02-14T12:51:23.153Z,0.73
2024-02-14T12:53:50.090Z,0.90
2024-02-14T12:56:16.920Z,0.90
2024-02-14T12:58:43.805Z,0.80
2024-02-14T13:01:12.288Z,1.20
2024-02-14T13:03:41.286Z,1.23
2024-02-14T13:06:08.229Z,1.40
2024-02-14T13:08:35.086Z,0.88
2024-02-14T13:11:01.875Z,0.80
2024-02-14T13:13:32.527Z,0.73
2024-02-14T13:15:59.434Z,0.60
2024-02-14T13:18:26.434Z,1.02
2024-02-14T13:21:00.544Z,0.70
2024-02-14T13:23:27.586Z,0.60
2024-02-14T13:25:54.496Z,0.50
2024-02-14T13:28:21.332Z,0.85
2024-02-14T13:30:48.075Z,0.80
2024-02-14T13:33:15.732Z,0.70
2024-02-14T13:35:42.616Z,0.70
2024-02-14T13:38:12.687Z,2.67
2024-02-14T13:40:39.475Z,1.27
2024-02-14T13:43:06.299Z,0.90
2024-02-14T13:45:44.590Z,1.15
2024-02-14T13:48:12.356Z,0.68
2024-02-14T13:50:39.761Z,1.25
2024-02-14T13:53:08.233Z,1.10
2024-02-14T13:55:35.032Z,1.02
2024-02-14T13:58:02.057Z,0.88
2024-02-14T14:00:28.980Z,1.00
2024-02-14T14:02:56.603Z,0.90
2024-02-14T14:05:23.701Z,1.30
2024-02-14T14:07:57.945Z,1.73
2024-02-14T14:12:55.453Z,0.47
2024-02-14T14:15:23.817Z,0.85
2024-02-14T14:17:51.776Z,0.60
2024-02-14T14:20:20.502Z,0.75
2024-02-14T14:22:47.727Z,0.40
2024-02-14T14:25:14.874Z,0.40
2024-02-14T14:27:41.808Z,0.40
2024-02-14T14:30:09.049Z,0.50
2024-02-14T14:32:36.143Z,0.70
2024-02-14T14:35:03.574Z,0.95
2024-02-14T14:37:30.444Z,0.63
2024-02-14T14:39:57.574Z,0.40
2024-02-14T14:42:24.523Z,1.05
2024-02-14T14:44:51.824Z,0.60
2024-02-14T14:47:18.696Z,1.10
2024-02-14T14:49:45.892Z,1.20
2024-02-14T14:52:13.501Z,3.00
2024-02-14T14:54:40.681Z,1.60
2024-02-14T14:57:13.115Z,0.70
2024-02-14T14:59:39.928Z,0.35
2024-02-14T15:02:07.422Z,0.57
2024-02-14T15:04:38.673Z,0.70
2024-02-14T15:07:08.547Z,0.63
2024-02-14T15:09:38.020Z,0.60
2024-02-14T15:12:09.187Z,0.98
2024-02-14T15:14:36.185Z,0.70
2024-02-14T15:17:03.060Z,0.98
2024-02-14T15:19:29.923Z,0.73
2024-02-14T15:21:56.757Z,0.93
2024-02-14T15:24:23.972Z,1.15
2024-02-14T15:26:51.385Z,1.08
2024-02-14T15:29:38.372Z,1.02
2024-02-14T15:32:24.857Z,0.90
2024-02-14T15:34:52.346Z,0.65
2024-02-14T15:37:19.244Z,0.60
2024-02-14T15:39:46.138Z,0.80
2024-02-14T15:42:13.262Z,3.35
2024-02-14T15:44:40.453Z,1.00
2024-02-14T15:47:08.767Z,1.23
2024-02-14T15:49:36.620Z,1.02
2024-02-14T15:52:06.011Z,0.90
2024-02-14T15:54:32.938Z,2.85
2024-02-14T15:57:01.255Z,1.25
2024-02-14T15:59:28.978Z,1.33
2024-02-14T16:01:56.828Z,1.02
2024-02-14T16:04:24.598Z,0.95
2024-02-14T16:06:51.789Z,1.10
2024-02-14T16:09:18.685Z,1.30
2024-02-14T16:11:45.750Z,2.28
2024-02-14T16:14:12.747Z,2.00
2024-02-14T16:16:39.499Z,1.30
2024-02-14T16:19:07.165Z,1.30
2024-02-14T16:21:34.102Z,1.13
2024-02-14T16:24:00.885Z,1.30
2024-02-14T16:26:31.035Z,1.30
2024-02-14T16:28:58.875Z,1.20
2024-02-14T16:31:25.774Z,1.23
2024-02-14T16:33:52.913Z,1.75
2024-02-14T16:36:19.940Z,0.95
2024-02-14T16:38:46.812Z,1.20
2024-02-14T16:41:13.665Z,1.30
2024-02-14T16:43:40.537Z,1.83
2024-02-14T16:46:07.481Z,1.00
2024-02-14T16:48:34.683Z,3.17
2024-02-14T16:51:01.630Z,1.20
2024-02-14T16:53:28.527Z,3.97
2024-02-14T16:55:55.861Z,3.50
2024-02-14T16:58:22.834Z,2.67
2024-02-14T17:00:50.312Z,1.42
2024-02-14T17:03:17.796Z,1.40
2024-02-14T17:05:47.214Z,1.10
2024-02-14T17:08:14.323Z,1.00
2024-02-14T17:10:41.269Z,1.08
2024-02-14T17:13:08.820Z,0.85
2024-02-14T17:15:36.446Z,0.90
2024-02-14T17:18:04.527Z,1.10
2024-02-14T17:20:32.233Z,1.40
2024-02-14T17:22:59.132Z,1.05
2024-02-14T17:25:25.938Z,1.17
2024-02-14T17:27:53.245Z,1.20
2024-02-14T17:30:21.722Z,1.17
2024-02-14T17:32:49.935Z,1.35
2024-02-14T17:35:17.467Z,1.50
2024-02-14T17:37:44.364Z,1.25
2024-02-14T17:40:11.979Z,1.60
2024-02-14T17:42:39.119Z,1.90
2024-02-14T17:45:07.505Z,1.50
2024-02-14T17:47:35.188Z,2.20
2024-02-14T17:50:04.251Z,2.10
2024-02-14T17:52:31.229Z,2.03
2024-02-14T17:54:58.707Z,1.52
2024-02-14T17:57:26.186Z,1.60
2024-02-14T17:59:53.234Z,1.70
2024-02-14T18:02:20.953Z,1.60
2024-02-14T18:04:47.839Z,1.40
2024-02-14T18:07:15.112Z,1.40
2024-02-14T18:09:42.173Z,1.10
2024-02-14T18:12:09.845Z,1.50
2024-02-14T18:14:36.895Z,1.40
2024-02-14T18:17:03.934Z,1.70
2024-02-14T18:19:30.911Z,1.50
2024-02-14T18:21:57.892Z,1.73
2024-02-14T18:24:24.779Z,1.42
2024-02-14T18:26:51.662Z,1.38
2024-02-14T18:29:18.515Z,1.90
2024-02-14T18:31:45.825Z,1.73
2024-02-14T18:34:12.917Z,1.35
2024-02-14T18:36:40.169Z,1.80
2024-02-14T18:39:07.230Z,1.60
2024-02-14T18:41:36.036Z,1.40
2024-02-14T18:44:06.712Z,1.60
2024-02-14T18:46:33.906Z,1.65
2024-02-14T18:49:01.067Z,1.83
2024-02-14T18:51:28.192Z,1.80
2024-02-14T18:53:55.012Z,2.65
2024-02-14T18:56:22.424Z,1.52
2024-02-14T18:58:50.832Z,1.70
2024-02-14T19:01:26.096Z,2.20
2024-02-14T19:03:55.099Z,1.33
2024-02-14T19:06:23.916Z,2.00
2024-02-14T19:08:52.572Z,1.70
2024-02-14T19:11:19.657Z,3.20
2024-02-14T19:13:46.625Z,2.30
2024-02-14T19:16:23.965Z,2.00
2024-02-14T19:18:55.731Z,1.88
2024-02-14T19:21:22.807Z,2.00
2024-02-14T19:23:49.858Z,1.85
2024-02-14T19:26:16.919Z,1.73
2024-02-14T19:28:43.897Z,1.65
2024-02-14T19:31:10.896Z,1.73
2024-02-14T19:33:38.008Z,1.60
2024-02-14T19:36:05.305Z,1.38
2024-02-14T19:38:32.114Z,1.60
2024-02-14T19:40:59.009Z,1.88
2024-02-14T19:43:32.486Z,1.77
2024-02-14T19:46:05.982Z,1.58
2024-02-14T19:48:35.603Z,1.40
2024-02-14T19:51:04.358Z,1.70
2024-02-14T19:53:31.791Z,2.10
2024-02-14T19:56:00.041Z,2.00
2024-02-14T19:58:27.078Z,1.98
2024-02-14T20:00:54.082Z,2.05
2024-02-14T20:03:21.507Z,1.80
2024-02-14T20:05:50.214Z,2.00
2024-02-14T20:08:18.859Z,2.00
2024-02-14T20:10:45.824Z,2.22
2024-02-14T20:13:12.824Z,1.85
2024-02-14T20:15:39.732Z,1.90
2024-02-14T20:18:06.685Z,2.63
2024-02-14T20:20:33.675Z,2.28
2024-02-14T20:23:00.505Z,2.47
2024-02-14T20:25:27.303Z,2.05
2024-02-14T20:27:55.205Z,2.90
2024-02-14T20:30:22.420Z,2.50
2024-02-14T20:32:49.557Z,2.30
2024-02-14T20:35:16.774Z,2.60
2024-02-14T20:37:46.453Z,3.03
2024-02-14T20:40:14.902Z,2.42
2024-02-14T20:42:43.042Z,2.67
2024-02-14T20:45:13.938Z,2.30
2024-02-14T20:47:42.674Z,3.05
2024-02-14T20:50:10.558Z,3.42
2024-02-14T20:52:38.655Z,3.53
2024-02-14T20:55:05.936Z,3.00
2024-02-14T20:57:33.984Z,3.60
2024-02-14T21:00:01.047Z,3.10
2024-02-14T21:02:29.105Z,3.13
2024-02-14T21:04:56.133Z,3.17
2024-02-14T21:07:23.157Z,2.97
2024-02-14T21:09:49.974Z,2.97
2024-02-14T21:12:18.993Z,2.85
2024-02-14T21:14:45.864Z,3.30
2024-02-14T21:17:13.094Z,2.47
2024-02-14T21:19:40.327Z,2.80
2024-02-14T21:22:07.885Z,2.67
2024-02-14T21:24:34.868Z,2.65
2024-02-14T21:27:01.787Z,3.00
2024-02-14T21:29:28.810Z,3.22
2024-02-14T21:31:56.487Z,2.90
2024-02-14T21:34:23.503Z,2.70
2024-02-14T21:36:51.736Z,3.17
2024-02-14T21:39:18.655Z,3.30
2024-02-14T21:41:47.357Z,3.05
2024-02-14T21:44:14.672Z,3.10
2024-02-14T21:46:43.311Z,2.90
2024-02-14T21:49:10.434Z,2.65
2024-02-14T21:51:37.904Z,2.60
2024-02-14T21:54:05.507Z,2.88
2024-02-14T21:56:32.539Z,2.40
2024-02-14T21:58:59.687Z,2.22
2024-02-14T22:01:26.636Z,2.60
2024-02-14T22:03:53.454Z,2.88
2024-02-14T22:06:20.544Z,2.75
2024-02-14T22:08:47.455Z,2.47
2024-02-14T22:11:14.561Z,2.53
2024-02-14T22:13:41.957Z,2.58
2024-02-14T22:16:12.012Z,2.65
2024-02-14T22:18:39.907Z,2.22
2024-02-14T22:21:07.339Z,2.75
2024-02-14T22:23:34.632Z,2.85
2024-02-14T22:26:02.122Z,3.20
2024-02-14T22:28:35.642Z,3.10
2024-02-14T22:31:06.873Z,2.60
2024-02-14T22:33:34.308Z,2.65
2024-02-14T22:36:02.065Z,2.35
2024-02-14T22:38:29.110Z,2.55
2024-02-14T22:40:56.298Z,2.60
2024-02-14T22:43:23.407Z,4.93
2024-02-14T22:45:50.938Z,3.30
2024-02-14T22:48:18.125Z,2.80
2024-02-14T22:50:45.095Z,3.20
2024-02-14T22:53:13.377Z,4.43
2024-02-14T22:55:40.209Z,3.42
2024-02-14T22:58:07.011Z,2.67
2024-02-14T23:00:35.309Z,3.00
2024-02-14T23:03:07.699Z,3.95
2024-02-14T23:05:35.908Z,3.53
2024-02-14T23:08:05.467Z,3.20
2024-02-14T23:10:32.294Z,3.65
2024-02-14T23:12:59.761Z,3.28
2024-02-14T23:15:26.734Z,2.88
2024-02-14T23:17:53.601Z,2.83
2024-02-14T23:20:20.515Z,2.97
2024-02-14T23:22:47.384Z,4.15
2024-02-14T23:25:14.289Z,3.40
2024-02-14T23:27:46.523Z,2.97
2024-02-14T23:30:14.941Z,3.97
2024-02-14T23:32:42.381Z,4.28
2024-02-14T23:35:13.581Z,4.93
2024-02-14T23:37:41.448Z,5.45
2024-02-14T23:40:12.654Z,5.72
2024-02-14T23:42:45.123Z,5.80
2024-02-14T23:45:12.621Z,5.32
2024-02-14T23:47:40.187Z,3.45
2024-02-14T23:50:11.454Z,3.42
2024-02-14T23:52:39.843Z,4.65
2024-02-14T23:55:07.076Z,5.22
2024-02-14T23:57:34.598Z,4.55
